createdAt,value
2024-03-04T00:00:25.453Z,47.38
2024-03-04T00:02:52.147Z,47.71
2024-03-04T00:05:18.924Z,47.71
2024-03-04T00:07:45.600Z,47.74
2024-03-04T00:10:12.320Z,47.61
2024-03-04T00:12:39.034Z,47.96
2024-03-04T00:15:06.589Z,47.79
2024-03-04T00:17:33.256Z,48.05
2024-03-04T00:19:59.964Z,48.08
2024-03-04T00:22:26.701Z,47.94
2024-03-04T00:24:53.361Z,48.09
2024-03-04T00:27:20.026Z,47.99
2024-03-04T00:29:46.728Z,48.14
2024-03-04T00:32:13.416Z,48.24
2024-03-04T00:34:40.171Z,48.24
2024-03-04T00:37:06.955Z,48.29
2024-03-04T00:39:33.614Z,48.35
2024-03-04T00:42:00.324Z,48.47
2024-03-04T00:44:26.952Z,48.51
2024-03-04T00:46:53.685Z,48.62
2024-03-04T00:49:20.407Z,48.65
2024-03-04T00:51:47.175Z,48.68
2024-03-04T00:54:13.841Z,48.62
2024-03-04T00:56:40.511Z,48.77
2024-03-04T00:59:07.234Z,48.82
2024-03-04T01:01:34.592Z,48.87
2024-03-04T01:04:01.332Z,48.89
2024-03-04T01:06:28.049Z,48.93
2024-03-04T01:08:55.708Z,48.87
2024-03-04T01:11:22.433Z,49.06
2024-03-04T01:13:49.118Z,49.01
2024-03-04T01:16:15.791Z,49.06
2024-03-04T01:18:42.668Z,48.95
2024-03-04T01:21:09.329Z,48.89
2024-03-04T01:23:36.007Z,48.92
2024-03-04T01:26:02.718Z,49.08
2024-03-04T01:28:29.509Z,49.12
2024-03-04T01:30:56.305Z,49.30
2024-03-04T01:33:23.003Z,49.24
2024-03-04T01:35:49.738Z,49.32
2024-03-04T01:38:16.534Z,49.37
2024-03-04T01:40:43.386Z,49.38
2024-03-04T01:43:10.033Z,49.59
2024-03-04T01:45:36.842Z,49.60
2024-03-04T01:48:05.431Z,49.52
2024-03-04T01:50:37.522Z,50.32
2024-03-04T01:53:05.602Z,49.91
2024-03-04T01:55:37.399Z,50.28
2024-03-04T01:58:05.138Z,50.03
2024-03-04T02:00:34.063Z,50.31
2024-03-04T02:03:01.389Z,50.07
2024-03-04T02:05:28.192Z,50.01
2024-03-04T02:07:54.885Z,50.07
2024-03-04T02:10:21.737Z,50.23
2024-03-04T02:12:48.895Z,50.31
2024-03-04T02:15:15.601Z,50.24
2024-03-04T02:17:42.441Z,50.15
2024-03-04T02:20:11.229Z,50.46
2024-03-04T02:22:38.277Z,50.45
2024-03-04T02:25:05.388Z,50.37
2024-03-04T02:27:32.153Z,50.38
2024-03-04T02:29:58.855Z,50.27
2024-03-04T02:32:25.604Z,50.49
2024-03-04T02:34:53.183Z,50.47
2024-03-04T02:37:19.957Z,50.52
2024-03-04T02:39:48.041Z,50.52
2024-03-04T02:42:14.724Z,50.77
2024-03-04T02:44:41.407Z,50.25
2024-03-04T02:47:08.126Z,50.30
2024-03-04T02:49:34.919Z,50.51
2024-03-04T02:52:01.634Z,50.35
2024-03-04T02:54:28.402Z,50.49
2024-03-04T02:56:55.093Z,50.35
2024-03-04T02:59:21.908Z,50.67
2024-03-04T03:01:48.688Z,50.48
2024-03-04T03:04:16.405Z,50.61
2024-03-04T03:06:43.432Z,50.72
2024-03-04T03:09:10.672Z,50.49
2024-03-04T03:11:37.609Z,50.46
2024-03-04T03:14:04.337Z,50.72
2024-03-04T03:16:31.072Z,50.78
2024-03-04T03:18:57.834Z,50.84
2024-03-04T03:21:25.254Z,50.91
2024-03-04T03:23:52.035Z,50.97
2024-03-04T03:26:19.032Z,50.85
2024-03-04T03:28:46.286Z,50.92
2024-03-04T03:31:13.049Z,51.13
2024-03-04T03:33:40.016Z,51.16
2024-03-04T03:36:07.281Z,51.45
2024-03-04T03:38:34.173Z,51.29
2024-03-04T03:41:02.131Z,51.38
2024-03-04T03:43:28.908Z,51.30
2024-03-04T03:45:55.760Z,51.27
2024-03-04T03:48:22.490Z,51.40
2024-03-04T03:50:49.156Z,51.37
2024-03-04T03:53:15.886Z,51.57
2024-03-04T03:55:42.726Z,51.49
2024-03-04T03:58:09.433Z,51.52
2024-03-04T04:00:36.082Z,51.61
2024-03-04T04:03:02.784Z,51.89
2024-03-04T04:05:29.503Z,51.75
2024-03-04T04:07:56.152Z,51.74
2024-03-04T04:10:22.871Z,51.72
2024-03-04T04:12:49.618Z,51.89
2024-03-04T04:15:16.401Z,51.73
2024-03-04T04:17:43.082Z,51.86
2024-03-04T04:20:10.267Z,51.64
2024-03-04T04:22:37.045Z,51.75
2024-03-04T04:25:04.024Z,51.73
2024-03-04T04:27:30.742Z,51.55
2024-03-04T04:29:57.422Z,51.52
2024-03-04T04:32:24.187Z,51.43
2024-03-04T04:34:50.842Z,51.25
2024-03-04T04:37:17.636Z,51.12
2024-03-04T04:39:44.361Z,51.21
2024-03-04T04:42:11.081Z,51.34
2024-03-04T04:44:37.846Z,51.17
2024-03-04T04:47:04.742Z,51.37
2024-03-04T04:49:31.474Z,51.17
2024-03-04T04:51:58.327Z,51.02
2024-03-04T04:54:25.089Z,50.98
2024-03-04T04:56:52.299Z,50.96
2024-03-04T04:59:18.963Z,51.00
2024-03-04T05:01:45.765Z,51.03
2024-03-04T05:04:31.452Z,51.17
2024-03-04T05:06:59.212Z,51.83
2024-03-04T05:09:25.877Z,51.80
2024-03-04T05:11:52.640Z,51.66
2024-03-04T05:14:19.426Z,51.60
2024-03-04T05:16:46.220Z,51.69
2024-03-04T05:19:12.911Z,51.82
2024-03-04T05:21:39.647Z,51.92
2024-03-04T05:24:06.641Z,51.91
2024-03-04T05:26:33.340Z,51.94
2024-03-04T05:29:00.033Z,51.84
2024-03-04T05:31:26.774Z,52.02
2024-03-04T05:33:53.466Z,51.83
2024-03-04T05:36:20.137Z,51.88
2024-03-04T05:38:46.817Z,51.80
2024-03-04T05:41:13.515Z,51.76
2024-03-04T05:43:40.219Z,51.92
2024-03-04T05:46:07.015Z,51.65
2024-03-04T05:48:33.766Z,51.60
2024-03-04T05:51:00.832Z,51.60
2024-03-04T05:53:27.497Z,51.86
2024-03-04T05:55:54.225Z,52.12
2024-03-04T05:58:20.957Z,52.03
2024-03-04T06:00:47.827Z,52.27
2024-03-04T06:03:14.521Z,52.43
2024-03-04T06:05:41.185Z,52.79
2024-03-04T06:08:07.857Z,52.90
2024-03-04T06:10:34.577Z,53.13
2024-03-04T06:13:01.285Z,53.17
2024-03-04T06:15:28.220Z,53.26
2024-03-04T06:17:55.004Z,53.32
2024-03-04T06:20:21.694Z,53.40
2024-03-04T06:22:48.422Z,53.35
2024-03-04T06:25:15.197Z,53.42
2024-03-04T06:27:41.975Z,53.67
2024-03-04T06:30:09.311Z,53.75
2024-03-04T06:32:36.023Z,53.77
2024-03-04T06:35:02.743Z,53.91
2024-03-04T06:37:29.505Z,53.99
2024-03-04T06:39:56.195Z,54.20
2024-03-04T06:42:22.929Z,54.07
2024-03-04T06:44:49.581Z,54.34
2024-03-04T06:47:16.578Z,54.36
2024-03-04T06:49:43.316Z,54.55
2024-03-04T06:52:10.157Z,54.83
2024-03-04T06:54:36.876Z,55.23
2024-03-04T06:57:03.554Z,55.31
2024-03-04T06:59:30.266Z,55.53
2024-03-04T07:01:56.964Z,55.71
2024-03-04T07:04:23.790Z,55.88
2024-03-04T07:06:50.538Z,56.07
2024-03-04T07:09:17.255Z,56.24
2024-03-04T07:11:44.125Z,56.40
2024-03-04T07:14:10.813Z,56.34
2024-03-04T07:16:37.659Z,56.68
2024-03-04T07:19:04.529Z,56.58
2024-03-04T07:21:31.234Z,56.50
2024-03-04T07:23:57.911Z,56.82
2024-03-04T07:26:24.630Z,56.80
2024-03-04T07:28:51.297Z,56.96
2024-03-04T07:31:18.043Z,56.79
2024-03-04T07:33:44.699Z,57.10
2024-03-04T07:36:14.194Z,57.17
2024-03-04T07:38:42.325Z,57.18
2024-03-04T07:41:09.059Z,57.15
2024-03-04T07:43:35.805Z,57.30
2024-03-04T07:46:02.852Z,57.72
2024-03-04T07:48:29.676Z,57.58
2024-03-04T07:50:56.436Z,57.68
2024-03-04T07:53:23.122Z,57.84
2024-03-04T07:55:49.837Z,58.14
2024-03-04T07:58:16.729Z,58.28
2024-03-04T08:00:43.532Z,58.21
2024-03-04T08:03:10.218Z,58.50
2024-03-04T08:05:36.864Z,58.29
2024-03-04T08:08:03.698Z,58.40
2024-03-04T08:10:30.473Z,58.28
2024-03-04T08:12:57.162Z,58.41
2024-03-04T08:15:23.794Z,58.58
2024-03-04T08:17:55.433Z,58.54
2024-03-04T08:20:33.213Z,58.65
2024-03-04T08:23:04.495Z,58.69
2024-03-04T08:25:31.324Z,58.87
2024-03-04T08:27:58.163Z,58.74
2024-03-04T08:30:24.841Z,59.01
2024-03-04T08:32:51.723Z,59.32
2024-03-04T08:35:18.596Z,59.23
2024-03-04T08:37:45.450Z,59.07
2024-03-04T08:40:12.339Z,59.33
2024-03-04T08:42:39.740Z,59.32
2024-03-04T08:45:06.780Z,59.41
2024-03-04T08:47:33.509Z,59.30
2024-03-04T08:50:00.218Z,59.35
2024-03-04T08:52:26.986Z,59.39
2024-03-04T08:54:53.696Z,59.44
2024-03-04T08:57:20.553Z,59.43
2024-03-04T08:59:47.255Z,59.27
2024-03-04T09:02:13.996Z,59.32
2024-03-04T09:04:40.839Z,59.23
2024-03-04T09:07:07.616Z,59.32
2024-03-04T09:09:34.355Z,59.10
2024-03-04T09:12:01.012Z,59.12
2024-03-04T09:14:27.670Z,59.09
2024-03-04T09:16:54.413Z,59.13
2024-03-04T09:19:21.162Z,59.07
2024-03-04T09:21:48.504Z,59.05
2024-03-04T09:24:15.224Z,59.03
2024-03-04T09:26:46.586Z,59.17
2024-03-04T09:29:13.632Z,59.24
2024-03-04T09:31:41.369Z,59.23
2024-03-04T09:34:08.242Z,59.05
2024-03-04T09:36:34.997Z,59.19
2024-03-04T09:39:01.959Z,58.97
2024-03-04T09:41:30.964Z,58.94
2024-03-04T09:43:58.836Z,58.87
2024-03-04T09:46:25.999Z,58.92
2024-03-04T09:48:54.059Z,58.85
2024-03-04T09:51:21.646Z,58.58
2024-03-04T09:53:51.328Z,58.78
2024-03-04T09:56:18.831Z,58.74
2024-03-04T09:58:46.477Z,58.75
2024-03-04T10:01:13.609Z,58.84
2024-03-04T10:03:40.505Z,58.65
2024-03-04T10:06:07.815Z,58.63
2024-03-04T10:08:34.560Z,58.53
2024-03-04T10:11:01.341Z,58.63
2024-03-04T10:13:29.501Z,58.60
2024-03-04T10:15:56.102Z,58.38
2024-03-04T10:18:22.777Z,58.58
2024-03-04T10:20:49.518Z,58.71
2024-03-04T10:23:18.819Z,58.84
2024-03-04T10:25:45.571Z,59.00
2024-03-04T10:28:12.378Z,58.98
2024-03-04T10:30:39.058Z,58.71
2024-03-04T10:33:05.844Z,58.99
2024-03-04T10:35:32.907Z,59.00
2024-03-04T10:38:01.079Z,58.91
2024-03-04T10:40:27.972Z,58.84
2024-03-04T10:42:57.654Z,58.73
2024-03-04T10:45:25.349Z,58.68
2024-03-04T10:47:52.571Z,58.69
2024-03-04T10:50:19.284Z,58.63
2024-03-04T10:52:46.073Z,58.65
2024-03-04T10:55:12.981Z,58.62
2024-03-04T10:57:44.203Z,58.51
2024-03-04T11:00:13.440Z,58.69
2024-03-04T11:02:51.689Z,58.86
2024-03-04T11:05:24.008Z,58.92
2024-03-04T11:07:53.103Z,58.89
2024-03-04T11:10:32.285Z,59.08
2024-03-04T11:13:30.245Z,59.23
2024-03-04T11:16:02.750Z,59.12
2024-03-04T11:19:02.999Z,59.27
2024-03-04T11:21:30.550Z,59.35
2024-03-04T11:23:58.135Z,59.11
2024-03-04T11:26:25.254Z,59.25
2024-03-04T11:28:54.536Z,59.17
2024-03-04T11:31:39.890Z,59.00
2024-03-04T11:34:08.083Z,59.01
2024-03-04T11:36:34.839Z,58.88
2024-03-04T11:39:05.809Z,58.63
2024-03-04T11:41:43.222Z,58.61
2024-03-04T11:44:10.051Z,58.56
2024-03-04T11:46:41.679Z,58.51
2024-03-04T11:49:31.725Z,58.42
2024-03-04T11:52:05.350Z,58.59
2024-03-04T11:54:35.035Z,58.57
2024-03-04T11:57:03.399Z,58.47
2024-03-04T11:59:30.759Z,58.53
2024-03-04T12:01:57.929Z,58.46
2024-03-04T12:04:25.329Z,58.53
2024-03-04T12:06:53.063Z,58.59
2024-03-04T12:09:43.853Z,58.72
2024-03-04T12:12:08.884Z,58.97
2024-03-04T12:14:35.600Z,58.67
2024-03-04T12:17:02.306Z,58.43
2024-03-04T12:19:29.079Z,58.24
2024-03-04T12:21:55.787Z,57.93
2024-03-04T12:24:22.848Z,58.04
2024-03-04T12:26:52.992Z,57.86
2024-03-04T12:29:24.435Z,57.89
2024-03-04T12:31:51.799Z,57.95
2024-03-04T12:34:20.638Z,57.50
2024-03-04T12:36:47.784Z,57.31
2024-03-04T12:39:14.514Z,57.20
2024-03-04T12:41:41.235Z,57.36
2024-03-04T12:44:08.003Z,57.27
2024-03-04T12:46:35.934Z,57.07
2024-03-04T12:49:05.930Z,55.92
2024-03-04T12:51:35.677Z,56.31
2024-03-04T12:54:03.461Z,56.40
2024-03-04T12:56:30.148Z,56.58
2024-03-04T12:58:56.877Z,56.49
2024-03-04T13:01:23.660Z,56.62
2024-03-04T13:03:50.394Z,56.72
2024-03-04T13:06:17.087Z,56.42
2024-03-04T13:08:43.845Z,56.05
2024-03-04T13:11:10.752Z,56.13
2024-03-04T13:13:37.632Z,56.07
2024-03-04T13:16:04.738Z,55.96
2024-03-04T13:18:31.512Z,55.55
2024-03-04T13:20:58.514Z,55.54
2024-03-04T13:23:25.171Z,54.96
2024-03-04T13:25:52.076Z,55.36
2024-03-04T13:28:18.902Z,55.42
2024-03-04T13:30:45.567Z,55.75
2024-03-04T13:33:12.303Z,55.81
2024-03-04T13:35:39.021Z,55.56
2024-03-04T13:38:05.721Z,55.80
2024-03-04T13:40:32.401Z,55.73
2024-03-04T13:43:08.473Z,55.87
2024-03-04T13:45:39.672Z,55.86
2024-03-04T13:48:06.860Z,55.84
2024-03-04T13:50:33.569Z,56.14
2024-03-04T13:53:00.245Z,55.94
2024-03-04T13:55:26.984Z,56.04
2024-03-04T13:57:53.691Z,56.01
2024-03-04T14:00:20.446Z,55.83
2024-03-04T14:02:47.118Z,55.97
2024-03-04T14:05:13.847Z,56.11
2024-03-04T14:07:41.404Z,55.23
2024-03-04T14:10:08.629Z,54.54
2024-03-04T14:12:35.341Z,55.03
2024-03-04T14:15:02.019Z,55.21
2024-03-04T14:17:30.871Z,55.47
2024-03-04T14:19:59.110Z,55.71
2024-03-04T14:22:25.949Z,55.95
2024-03-04T14:24:52.597Z,55.73
2024-03-04T14:27:19.296Z,55.88
2024-03-04T14:29:45.947Z,55.94
2024-03-04T14:32:12.771Z,55.93
2024-03-04T14:34:39.526Z,55.83
2024-03-04T14:37:06.256Z,55.84
2024-03-04T14:39:32.890Z,55.85
2024-03-04T14:41:59.521Z,56.15
2024-03-04T14:44:26.225Z,55.64
2024-03-04T14:46:52.959Z,55.65
2024-03-04T14:49:19.732Z,55.83
2024-03-04T14:51:46.517Z,55.82
2024-03-04T14:54:13.248Z,55.60
2024-03-04T14:56:39.914Z,55.73
2024-03-04T14:59:06.585Z,55.71
2024-03-04T15:01:33.358Z,55.59
2024-03-04T15:04:00.152Z,55.67
2024-03-04T15:06:27.117Z,55.75
2024-03-04T15:08:53.795Z,55.53
2024-03-04T15:11:20.594Z,55.67
2024-03-04T15:13:47.598Z,55.65
2024-03-04T15:16:14.445Z,55.72
2024-03-04T15:18:41.265Z,55.58
2024-03-04T15:21:08.191Z,55.70
2024-03-04T15:23:35.252Z,55.81
2024-03-04T15:26:05.214Z,55.75
2024-03-04T15:28:32.151Z,55.65
2024-03-04T15:30:58.927Z,55.44
2024-03-04T15:33:25.668Z,55.53
2024-03-04T15:35:56.774Z,55.54
2024-03-04T15:38:29.576Z,55.15
2024-03-04T15:40:56.363Z,54.93
2024-03-04T15:43:23.300Z,55.00
2024-03-04T15:45:50.118Z,55.21
2024-03-04T15:48:16.876Z,55.25
2024-03-04T15:50:43.714Z,55.44
2024-03-04T15:53:10.464Z,55.31
2024-03-04T15:55:37.255Z,55.52
2024-03-04T15:58:04.228Z,55.31
2024-03-04T16:00:30.932Z,55.31
2024-03-04T16:02:57.629Z,55.34
2024-03-04T16:05:24.319Z,55.16
2024-03-04T16:07:51.099Z,55.46
2024-03-04T16:10:17.863Z,55.51
2024-03-04T16:12:44.561Z,55.52
2024-03-04T16:15:11.278Z,55.74
2024-03-04T16:17:37.985Z,55.80
2024-03-04T16:20:05.573Z,55.92
2024-03-04T16:22:32.260Z,56.07
2024-03-04T16:24:58.997Z,56.06
2024-03-04T16:27:25.663Z,56.16
2024-03-04T16:29:52.362Z,56.13
2024-03-04T16:32:19.040Z,56.11
2024-03-04T16:34:45.917Z,56.20
2024-03-04T16:37:12.659Z,56.16
2024-03-04T16:39:39.398Z,56.26
2024-03-04T16:42:06.371Z,56.44
2024-03-04T16:44:33.049Z,56.52
2024-03-04T16:46:59.868Z,56.53
2024-03-04T16:49:26.617Z,56.58
2024-03-04T16:51:53.364Z,56.53
2024-03-04T16:54:20.164Z,56.49
2024-03-04T16:56:47.710Z,56.54
2024-03-04T16:59:14.823Z,56.48
2024-03-04T17:01:45.933Z,56.61
2024-03-04T17:04:14.832Z,56.66
2024-03-04T17:06:41.553Z,56.72
2024-03-04T17:09:08.326Z,56.83
2024-03-04T17:11:35.049Z,56.85
2024-03-04T17:14:01.774Z,56.83
2024-03-04T17:16:28.567Z,56.87
2024-03-04T17:18:55.464Z,57.03
2024-03-04T17:21:22.164Z,57.06
2024-03-04T17:23:48.874Z,57.16
2024-03-04T17:26:15.584Z,57.19
2024-03-04T17:28:42.264Z,57.22
2024-03-04T17:31:08.993Z,57.23
2024-03-04T17:33:35.710Z,57.25
2024-03-04T17:36:02.426Z,57.40
2024-03-04T17:38:29.093Z,57.37
2024-03-04T17:40:56.121Z,57.41
2024-03-04T17:43:22.913Z,57.45
2024-03-04T17:45:49.633Z,57.48
2024-03-04T17:48:16.427Z,57.61
2024-03-04T17:50:43.318Z,57.54
2024-03-04T17:53:10.010Z,57.62
2024-03-04T17:55:36.941Z,57.71
2024-03-04T17:58:03.747Z,57.78
2024-03-04T18:00:30.480Z,57.73
2024-03-04T18:02:57.148Z,57.78
2024-03-04T18:05:23.855Z,57.76
2024-03-04T18:07:50.589Z,57.69
2024-03-04T18:10:17.450Z,57.74
2024-03-04T18:12:44.141Z,57.62
2024-03-04T18:15:11.035Z,57.70
2024-03-04T18:17:37.833Z,57.70
2024-03-04T18:20:05.008Z,57.73
2024-03-04T18:22:31.775Z,57.90
2024-03-04T18:24:58.585Z,57.90
2024-03-04T18:27:25.262Z,57.90
2024-03-04T18:29:51.957Z,57.82
2024-03-04T18:32:18.623Z,57.75
2024-03-04T18:34:45.346Z,57.91
2024-03-04T18:37:12.027Z,57.90
2024-03-04T18:39:38.702Z,57.85
2024-03-04T18:42:05.495Z,57.82
2024-03-04T18:44:32.291Z,57.65
2024-03-04T18:46:59.002Z,57.64
2024-03-04T18:49:25.985Z,57.66
2024-03-04T18:51:52.739Z,57.73
2024-03-04T18:54:19.458Z,57.88
2024-03-04T18:56:46.171Z,58.04
2024-03-04T18:59:12.870Z,58.11
2024-03-04T19:01:39.688Z,58.16
2024-03-04T19:04:06.411Z,58.40
2024-03-04T19:06:33.156Z,58.54
2024-03-04T19:08:59.842Z,58.87
2024-03-04T19:11:26.613Z,58.83
2024-03-04T19:13:53.368Z,59.14
2024-03-04T19:16:20.149Z,59.21
2024-03-04T19:18:46.871Z,59.40
2024-03-04T19:21:17.648Z,59.92
2024-03-04T19:23:44.744Z,59.70
2024-03-04T19:26:18.216Z,60.11
2024-03-04T19:28:46.028Z,59.94
2024-03-04T19:31:22.606Z,60.39
2024-03-04T19:33:50.376Z,59.96
2024-03-04T19:36:17.408Z,59.87
2024-03-04T19:38:44.177Z,60.01
2024-03-04T19:41:21.193Z,60.70
2024-03-04T19:43:51.787Z,60.52
2024-03-04T19:46:19.916Z,60.26
2024-03-04T19:48:47.046Z,60.26
2024-03-04T19:51:14.204Z,60.09
2024-03-04T19:54:13.013Z,60.36
2024-03-04T19:56:39.811Z,59.97
2024-03-04T19:59:06.545Z,59.96
2024-03-04T20:01:33.371Z,59.92
2024-03-04T20:04:00.191Z,59.94
2024-03-04T20:06:26.869Z,59.87
2024-03-04T20:08:53.611Z,59.70
2024-03-04T20:11:20.945Z,59.75
2024-03-04T20:13:47.876Z,59.53
2024-03-04T20:16:15.464Z,59.49
2024-03-04T20:18:42.957Z,59.49
2024-03-04T20:21:10.829Z,59.49
2024-03-04T20:23:37.984Z,59.51
2024-03-04T20:26:08.986Z,59.80
2024-03-04T20:28:36.006Z,59.89
2024-03-04T20:31:03.373Z,59.99
2024-03-04T20:33:30.616Z,60.07
2024-03-04T20:35:57.334Z,60.13
2024-03-04T20:38:24.052Z,60.22
2024-03-04T20:40:50.952Z,60.36
2024-03-04T20:43:17.908Z,60.41
2024-03-04T20:45:44.790Z,60.46
2024-03-04T20:48:11.740Z,60.33
2024-03-04T20:50:39.456Z,60.41
2024-03-04T20:53:06.602Z,60.37
2024-03-04T20:55:33.460Z,60.62
2024-03-04T20:58:00.192Z,60.44
2024-03-04T21:00:26.877Z,60.40
2024-03-04T21:02:53.749Z,60.33
2024-03-04T21:05:22.371Z,60.62
2024-03-04T21:07:51.164Z,60.51
2024-03-04T21:10:19.791Z,60.34
2024-03-04T21:12:47.896Z,60.42
2024-03-04T21:15:14.733Z,60.71
2024-03-04T21:17:41.736Z,60.38
2024-03-04T21:20:09.820Z,60.39
2024-03-04T21:22:36.531Z,60.56
2024-03-04T21:25:03.464Z,60.40
2024-03-04T21:27:30.242Z,60.35
2024-03-04T21:29:59.730Z,60.54
2024-03-04T21:32:26.467Z,60.51
2024-03-04T21:34:53.173Z,60.62
2024-03-04T21:37:24.428Z,60.67
2024-03-04T21:39:54.891Z,60.75
2024-03-04T21:42:21.648Z,60.77
2024-03-04T21:44:48.391Z,60.73
2024-03-04T21:47:15.330Z,60.70
2024-03-04T21:49:42.127Z,60.76
2024-03-04T21:52:08.865Z,60.85
2024-03-04T21:54:35.548Z,60.83
2024-03-04T21:57:02.719Z,60.79
2024-03-04T21:59:29.509Z,60.68
2024-03-04T22:01:56.305Z,60.83
2024-03-04T22:04:23.145Z,60.80
2024-03-04T22:06:50.834Z,60.65
2024-03-04T22:09:18.641Z,60.43
2024-03-04T22:11:52.215Z,60.42
2024-03-04T22:14:19.637Z,60.32
2024-03-04T22:16:47.128Z,60.36
2024-03-04T22:19:14.254Z,60.19
2024-03-04T22:21:41.097Z,60.30
2024-03-04T22:24:08.352Z,60.35
2024-03-04T22:26:35.612Z,60.42
2024-03-04T22:29:05.146Z,60.49
2024-03-04T22:31:33.734Z,60.50
2024-03-04T22:34:00.487Z,60.55
2024-03-04T22:36:27.177Z,60.45
2024-03-04T22:38:53.889Z,60.68
2024-03-04T22:41:20.549Z,60.76
2024-03-04T22:43:47.301Z,60.74
2024-03-04T22:46:14.059Z,60.65
2024-03-04T22:48:40.738Z,60.66
2024-03-04T22:51:07.428Z,60.60
2024-03-04T22:53:34.251Z,60.59
2024-03-04T22:56:01.011Z,60.65
2024-03-04T22:58:27.773Z,60.80
2024-03-04T23:00:54.530Z,60.87
2024-03-04T23:03:24.257Z,60.83
2024-03-04T23:05:50.933Z,60.77
2024-03-04T23:08:17.600Z,60.84
2024-03-04T23:10:44.307Z,60.72
2024-03-04T23:13:11.038Z,60.64
2024-03-04T23:15:37.688Z,60.73
2024-03-04T23:18:04.856Z,60.64
2024-03-04T23:20:32.355Z,60.78
2024-03-04T23:22:59.225Z,60.56
2024-03-04T23:25:26.265Z,60.58
2024-03-04T23:27:52.926Z,60.65
2024-03-04T23:30:19.764Z,60.67
2024-03-04T23:32:46.520Z,60.67
2024-03-04T23:35:13.440Z,60.76
2024-03-04T23:37:40.355Z,60.70
2024-03-04T23:40:11.322Z,60.93
2024-03-04T23:42:38.794Z,60.62
2024-03-04T23:45:06.657Z,60.51
2024-03-04T23:47:33.355Z,60.49
2024-03-04T23:50:00.047Z,60.55
2024-03-04T23:52:26.825Z,60.69
2024-03-04T23:54:53.573Z,60.75
2024-03-04T23:57:20.308Z,60.91
2024-03-04T23:59:47.022Z,60.96
